createdAt,value
2022-10-23T00:01:26.894Z,13.40
2022-10-23T00:04:28.988Z,13.40
2022-10-23T00:10:32.283Z,13.40
2022-10-23T00:13:33.968Z,13.40
2022-10-23T00:16:36.165Z,13.30
2022-10-23T00:19:37.866Z,13.30
2022-10-23T00:22:42.789Z,13.30
2022-10-23T00:25:44.453Z,13.30
2022-10-23T00:28:50.174Z,13.30
2022-10-23T00:31:51.851Z,13.20
2022-10-23T00:34:53.795Z,13.20
2022-10-23T00:37:55.464Z,13.20
2022-10-23T00:40:57.173Z,13.10
2022-10-23T00:44:10.253Z,13.10
2022-10-23T00:47:13.653Z,13.10
2022-10-23T00:50:16.124Z,13.00
2022-10-23T00:53:20.213Z,13.00
2022-10-23T00:56:22.152Z,13.00
2022-10-23T00:59:23.826Z,13.00
2022-10-23T01:02:25.620Z,13.00
2022-10-23T01:08:55.612Z,13.00
2022-10-23T01:12:00.340Z,13.00
2022-10-23T01:15:13.859Z,13.00
2022-10-23T01:18:44.723Z,13.00
2022-10-23T01:22:14.814Z,13.00
2022-10-23T01:25:27.669Z,13.00
2022-10-23T01:28:34.439Z,13.00
2022-10-23T01:31:42.444Z,12.90
2022-10-23T01:35:00.343Z,12.90
2022-10-23T01:38:10.436Z,12.90
2022-10-23T01:41:24.377Z,12.90
2022-10-23T01:44:42.058Z,12.90
2022-10-23T01:47:45.195Z,12.80
2022-10-23T01:50:47.504Z,12.80
2022-10-23T01:53:52.529Z,12.80
2022-10-23T01:56:55.906Z,12.80
2022-10-23T02:00:06.993Z,12.70
2022-10-23T02:03:09.469Z,12.70
2022-10-23T02:06:11.884Z,12.70
2022-10-23T02:09:13.949Z,12.70
2022-10-23T02:12:30.638Z,12.70
2022-10-23T02:15:40.598Z,12.60
2022-10-23T02:19:07.339Z,12.60
2022-10-23T02:22:30.440Z,12.60
2022-10-23T02:25:50.485Z,12.70
2022-10-23T02:28:58.939Z,12.70
2022-10-23T02:32:01.780Z,12.70
2022-10-23T02:35:03.976Z,12.70
2022-10-23T02:38:36.829Z,12.70
2022-10-23T02:41:47.008Z,12.70
2022-10-23T02:45:15.716Z,12.70
2022-10-23T02:48:27.006Z,12.60
2022-10-23T02:51:53.121Z,12.60
2022-10-23T02:55:25.735Z,12.60
2022-10-23T02:58:56.605Z,12.60
2022-10-23T03:02:03.781Z,12.60
2022-10-23T03:05:11.244Z,12.60
2022-10-23T03:08:14.019Z,12.60
2022-10-23T03:11:15.797Z,12.50
2022-10-23T03:14:17.588Z,12.50
2022-10-23T03:17:19.363Z,12.50
2022-10-23T03:20:21.064Z,12.50
2022-10-23T03:23:22.718Z,12.50
2022-10-23T03:26:24.385Z,12.40
2022-10-23T03:29:26.162Z,12.40
2022-10-23T03:32:27.895Z,12.40
2022-10-23T03:35:29.601Z,12.40
2022-10-23T03:38:31.694Z,12.40
2022-10-23T03:41:33.488Z,12.40
2022-10-23T03:44:35.268Z,12.40
2022-10-23T03:47:41.210Z,12.40
2022-10-23T03:50:43.316Z,12.40
2022-10-23T03:53:45.005Z,12.30
2022-10-23T03:56:46.710Z,12.30
2022-10-23T03:59:48.368Z,12.20
2022-10-23T04:02:52.194Z,12.20
2022-10-23T04:05:53.930Z,12.10
2022-10-23T04:08:55.613Z,12.10
2022-10-23T04:11:57.320Z,12.10
2022-10-23T04:14:59.002Z,12.10
2022-10-23T04:18:00.696Z,12.10
2022-10-23T04:21:02.392Z,12.10
2022-10-23T04:24:04.361Z,12.10
2022-10-23T04:27:06.028Z,12.10
2022-10-23T04:30:08.538Z,12.10
2022-10-23T04:33:10.238Z,12.10
2022-10-23T04:36:11.920Z,12.20
2022-10-23T04:39:16.714Z,12.20
2022-10-23T04:42:18.469Z,12.30
2022-10-23T04:45:20.189Z,12.30
2022-10-23T04:48:25.542Z,12.30
2022-10-23T04:51:30.121Z,12.30
2022-10-23T04:54:41.135Z,12.30
2022-10-23T04:57:42.854Z,12.30
2022-10-23T05:00:44.929Z,12.30
2022-10-23T05:03:46.721Z,12.30
2022-10-23T05:06:48.400Z,12.40
2022-10-23T05:09:50.169Z,12.30
2022-10-23T05:12:51.976Z,12.30
2022-10-23T05:15:54.062Z,12.30
2022-10-23T05:18:56.376Z,12.20
2022-10-23T05:21:58.503Z,12.20
2022-10-23T05:25:02.221Z,12.20
2022-10-23T05:28:04.278Z,12.20
2022-10-23T05:31:06.844Z,12.20
2022-10-23T05:34:11.220Z,12.20
2022-10-23T05:37:16.664Z,12.20
2022-10-23T05:40:18.614Z,12.20
2022-10-23T05:43:31.066Z,12.10
2022-10-23T05:46:32.821Z,12.10
2022-10-23T05:49:34.787Z,12.10
2022-10-23T05:52:37.503Z,12.10
2022-10-23T05:55:39.145Z,12.00
2022-10-23T05:58:40.824Z,12.00
2022-10-23T06:01:42.636Z,12.00
2022-10-23T06:04:44.445Z,12.00
2022-10-23T06:07:46.781Z,12.00
2022-10-23T06:10:48.583Z,12.00
2022-10-23T06:13:50.261Z,12.00
2022-10-23T06:16:52.118Z,12.10
2022-10-23T06:19:53.822Z,12.10
2022-10-23T06:22:55.553Z,12.20
2022-10-23T06:25:58.700Z,12.20
2022-10-23T06:29:00.604Z,12.30
2022-10-23T06:32:02.298Z,12.40
2022-10-23T06:35:05.775Z,12.40
2022-10-23T06:38:09.146Z,12.50
2022-10-23T06:41:17.017Z,12.50
2022-10-23T06:44:18.670Z,12.50
2022-10-23T06:47:20.378Z,12.50
2022-10-23T06:50:22.073Z,12.60
2022-10-23T06:53:24.860Z,12.60
2022-10-23T06:56:29.148Z,12.60
2022-10-23T06:59:30.844Z,12.70
2022-10-23T07:02:32.516Z,12.80
2022-10-23T07:05:34.421Z,12.80
2022-10-23T07:08:36.795Z,12.90
2022-10-23T07:11:38.535Z,12.90
2022-10-23T07:14:40.185Z,13.00
2022-10-23T07:17:41.923Z,13.00
2022-10-23T07:20:43.853Z,13.00
2022-10-23T07:23:45.521Z,13.10
2022-10-23T07:26:47.444Z,13.10
2022-10-23T07:29:52.925Z,13.20
2022-10-23T07:32:57.730Z,13.20
2022-10-23T07:35:59.488Z,13.20
2022-10-23T07:39:01.266Z,13.30
2022-10-23T07:42:03.069Z,13.20
2022-10-23T07:45:07.405Z,13.30
2022-10-23T07:48:09.162Z,13.30
2022-10-23T07:51:15.765Z,13.30
2022-10-23T07:54:17.563Z,13.40
2022-10-23T07:57:21.323Z,13.40
2022-10-23T08:03:25.972Z,13.60
2022-10-23T08:06:28.158Z,13.70
2022-10-23T08:09:30.033Z,14.00
2022-10-23T08:12:31.693Z,14.10
2022-10-23T08:15:45.225Z,14.20
2022-10-23T08:18:48.869Z,14.30
2022-10-23T08:21:54.604Z,14.60
2022-10-23T08:24:56.322Z,14.80
2022-10-23T08:27:58.061Z,15.10
2022-10-23T08:31:09.572Z,15.50
2022-10-23T08:34:11.612Z,15.60
2022-10-23T08:37:13.376Z,15.70
2022-10-23T08:40:22.788Z,15.70
2022-10-23T08:43:40.080Z,15.70
2022-10-23T08:46:46.035Z,15.80
2022-10-23T08:49:59.172Z,15.80
2022-10-23T08:53:14.219Z,15.80
2022-10-23T08:56:28.069Z,15.70
2022-10-23T08:59:48.355Z,15.70
2022-10-23T09:02:52.173Z,15.80
2022-10-23T09:06:13.703Z,15.90
2022-10-23T09:09:32.097Z,16.00
2022-10-23T09:12:33.972Z,16.10
2022-10-23T09:15:42.474Z,16.00
2022-10-23T09:18:47.542Z,16.00
2022-10-23T09:21:50.213Z,16.10
2022-10-23T09:24:53.874Z,16.10
2022-10-23T09:28:00.193Z,16.30
2022-10-23T09:31:08.892Z,16.30
2022-10-23T09:34:22.710Z,16.50
2022-10-23T09:37:27.777Z,16.50
2022-10-23T09:40:36.880Z,16.50
2022-10-23T09:43:38.681Z,16.50
2022-10-23T09:46:43.213Z,16.50
2022-10-23T09:49:53.349Z,16.60
2022-10-23T09:52:56.322Z,16.70
2022-10-23T09:56:05.158Z,16.60
2022-10-23T09:59:24.224Z,16.50
2022-10-23T10:02:29.814Z,16.50
2022-10-23T10:05:37.180Z,16.50
2022-10-23T10:08:51.584Z,16.50
2022-10-23T10:11:57.653Z,16.60
2022-10-23T10:15:12.302Z,16.60
2022-10-23T10:18:21.144Z,16.70
2022-10-23T10:21:53.380Z,16.70
2022-10-23T10:25:20.645Z,16.80
2022-10-23T10:28:59.816Z,16.80
2022-10-23T10:32:24.721Z,16.80
2022-10-23T10:35:47.914Z,16.80
2022-10-23T10:38:59.446Z,16.70
2022-10-23T10:42:28.365Z,16.70
2022-10-23T10:45:34.354Z,16.70
2022-10-23T10:48:51.682Z,16.70
2022-10-23T10:52:22.956Z,16.70
2022-10-23T10:55:27.003Z,16.90
2022-10-23T10:58:49.840Z,17.00
2022-10-23T11:02:27.621Z,17.10
2022-10-23T11:05:34.712Z,17.20
2022-10-23T11:08:49.948Z,17.30
2022-10-23T11:11:59.446Z,17.30
2022-10-23T11:15:42.623Z,17.30
2022-10-23T11:18:51.620Z,17.30
2022-10-23T11:22:22.536Z,17.30
2022-10-23T11:25:39.840Z,17.30
2022-10-23T11:28:53.839Z,17.30
2022-10-23T11:32:19.091Z,17.40
2022-10-23T11:35:32.653Z,17.40
2022-10-23T11:38:37.058Z,17.50
2022-10-23T11:41:50.446Z,17.50
2022-10-23T11:45:03.639Z,17.40
2022-10-23T11:48:20.061Z,17.50
2022-10-23T11:51:35.734Z,17.50
2022-10-23T11:54:37.401Z,17.50
2022-10-23T11:57:39.038Z,17.50
2022-10-23T12:00:51.865Z,17.60
2022-10-23T12:04:05.967Z,17.60
2022-10-23T12:07:58.781Z,17.60
2022-10-23T12:11:00.593Z,17.60
2022-10-23T12:14:02.268Z,17.60
2022-10-23T12:17:24.895Z,17.60
2022-10-23T12:20:40.578Z,17.60
2022-10-23T12:23:51.384Z,17.60
2022-10-23T12:27:04.418Z,17.60
2022-10-23T12:30:17.811Z,17.60
2022-10-23T12:33:19.371Z,17.60
2022-10-23T12:36:34.725Z,17.60
2022-10-23T12:39:38.933Z,17.40
2022-10-23T12:42:49.872Z,17.40
2022-10-23T12:45:52.107Z,17.40
2022-10-23T12:48:56.649Z,17.40
2022-10-23T12:52:00.929Z,17.40
2022-10-23T12:55:13.023Z,17.30
2022-10-23T12:58:30.652Z,17.30
2022-10-23T13:01:34.381Z,17.40
2022-10-23T13:04:37.758Z,17.30
2022-10-23T13:07:45.202Z,17.30
2022-10-23T13:10:48.730Z,17.20
2022-10-23T13:13:52.124Z,17.20
2022-10-23T13:17:00.102Z,17.20
2022-10-23T13:20:22.282Z,17.20
2022-10-23T13:23:31.344Z,17.20
2022-10-23T13:26:34.740Z,17.20
2022-10-23T13:29:36.421Z,17.20
2022-10-23T13:32:38.080Z,17.20
2022-10-23T13:35:39.672Z,17.20
2022-10-23T13:38:47.033Z,17.10
2022-10-23T13:41:48.695Z,17.10
2022-10-23T13:44:50.497Z,17.00
2022-10-23T13:47:52.689Z,17.00
2022-10-23T13:50:58.111Z,16.90
2022-10-23T13:53:59.802Z,16.80
2022-10-23T13:57:01.421Z,16.90
2022-10-23T14:00:04.159Z,16.80
2022-10-23T14:03:06.165Z,16.80
2022-10-23T14:06:08.000Z,16.80
2022-10-23T14:09:15.009Z,16.80
2022-10-23T14:12:17.587Z,16.80
2022-10-23T14:15:19.600Z,16.80
2022-10-23T14:18:36.313Z,16.70
2022-10-23T14:21:37.923Z,16.80
2022-10-23T14:24:39.725Z,16.80
2022-10-23T14:27:41.288Z,16.80
2022-10-23T14:30:44.167Z,16.80
2022-10-23T14:33:53.111Z,16.80
2022-10-23T14:37:07.944Z,16.80
2022-10-23T14:40:10.797Z,16.80
2022-10-23T14:43:49.738Z,16.80
2022-10-23T14:46:54.796Z,16.80
2022-10-23T14:49:56.595Z,16.80
2022-10-23T14:52:58.539Z,16.80
2022-10-23T14:56:04.397Z,16.70
2022-10-23T14:59:06.476Z,16.70
2022-10-23T15:02:11.588Z,16.70
2022-10-23T15:05:13.177Z,16.70
2022-10-23T15:08:14.761Z,16.60
2022-10-23T15:11:16.435Z,16.50
2022-10-23T15:14:18.072Z,16.50
2022-10-23T15:17:19.706Z,16.50
2022-10-23T15:20:21.367Z,16.40
2022-10-23T15:23:23.057Z,16.40
2022-10-23T15:26:25.583Z,16.40
2022-10-23T15:29:27.213Z,16.30
2022-10-23T15:32:28.840Z,16.30
2022-10-23T15:35:31.665Z,16.30
2022-10-23T15:38:33.245Z,16.20
2022-10-23T15:41:37.461Z,16.20
2022-10-23T15:44:40.058Z,16.20
2022-10-23T15:47:41.981Z,16.10
2022-10-23T15:50:46.857Z,16.10
2022-10-23T15:53:48.537Z,16.10
2022-10-23T15:56:53.223Z,16.00
2022-10-23T15:59:55.596Z,16.00
2022-10-23T16:03:00.146Z,15.90
2022-10-23T16:06:15.060Z,15.90
2022-10-23T16:09:17.321Z,15.80
2022-10-23T16:12:18.911Z,15.70
2022-10-23T16:15:20.519Z,15.70
2022-10-23T16:18:22.935Z,15.70
2022-10-23T16:21:27.382Z,15.70
2022-10-23T16:24:30.356Z,15.70
2022-10-23T16:27:32.055Z,15.70
2022-10-23T16:30:33.648Z,15.60
2022-10-23T16:33:35.277Z,15.60
2022-10-23T16:36:39.029Z,15.60
2022-10-23T16:39:40.806Z,15.60
2022-10-23T16:42:42.756Z,15.60
2022-10-23T16:45:44.512Z,15.60
2022-10-23T16:48:46.829Z,15.60
2022-10-23T16:51:48.531Z,15.50
2022-10-23T16:54:50.132Z,15.50
2022-10-23T16:57:51.745Z,15.50
2022-10-23T17:01:01.787Z,15.50
2022-10-23T17:04:05.401Z,15.40
2022-10-23T17:07:07.063Z,15.40
2022-10-23T17:10:09.047Z,15.50
2022-10-23T17:13:10.697Z,15.50
2022-10-23T17:16:18.185Z,15.50
2022-10-23T17:19:43.822Z,15.50
2022-10-23T17:22:46.693Z,15.40
2022-10-23T17:25:49.482Z,15.30
2022-10-23T17:28:51.464Z,15.30
2022-10-23T17:31:53.130Z,15.30
2022-10-23T17:34:56.715Z,15.30
2022-10-23T17:37:58.342Z,15.40
2022-10-23T17:40:59.988Z,15.40
2022-10-23T17:44:01.613Z,15.40
2022-10-23T17:47:03.263Z,15.50
2022-10-23T17:50:09.303Z,15.50
2022-10-23T17:53:10.891Z,15.50
2022-10-23T17:56:19.884Z,15.60
2022-10-23T17:59:41.907Z,15.60
2022-10-23T18:02:43.524Z,15.50
2022-10-23T18:05:45.287Z,15.60
2022-10-23T18:08:47.927Z,15.60
2022-10-23T18:11:50.093Z,15.60
2022-10-23T18:14:51.675Z,15.60
2022-10-23T18:17:53.371Z,15.70
2022-10-23T18:20:56.767Z,15.70
2022-10-23T18:24:02.232Z,15.60
2022-10-23T18:27:03.914Z,15.60
2022-10-23T18:30:06.573Z,15.60
2022-10-23T18:33:08.208Z,15.60
2022-10-23T18:36:37.480Z,15.60
2022-10-23T18:39:39.222Z,15.60
2022-10-23T18:42:41.002Z,15.60
2022-10-23T18:45:43.257Z,15.60
2022-10-23T18:48:45.635Z,15.60
2022-10-23T18:51:49.661Z,15.60
2022-10-23T18:54:53.953Z,15.60
2022-10-23T18:57:55.612Z,15.60
2022-10-23T19:00:57.373Z,15.60
2022-10-23T19:04:01.367Z,15.50
2022-10-23T19:07:03.149Z,15.50
2022-10-23T19:10:06.612Z,15.40
2022-10-23T19:13:08.211Z,15.40
2022-10-23T19:16:13.064Z,15.20
2022-10-23T19:19:22.873Z,15.20
2022-10-23T19:22:24.595Z,15.20
2022-10-23T19:25:32.773Z,15.20
2022-10-23T19:28:45.716Z,15.10
2022-10-23T19:31:51.787Z,15.10
2022-10-23T19:34:53.379Z,15.00
2022-10-23T19:37:55.047Z,15.00
2022-10-23T19:40:56.696Z,14.90
2022-10-23T19:43:58.314Z,14.90
2022-10-23T19:47:00.729Z,14.90
2022-10-23T19:50:03.327Z,14.80
2022-10-23T19:53:04.933Z,14.70
2022-10-23T19:56:08.354Z,14.70
2022-10-23T19:59:12.793Z,14.60
2022-10-23T20:02:14.573Z,14.60
2022-10-23T20:05:20.010Z,14.60
2022-10-23T20:08:21.647Z,14.50
2022-10-23T20:11:28.944Z,14.50
2022-10-23T20:14:30.981Z,14.50
2022-10-23T20:17:32.629Z,14.50
2022-10-23T20:20:34.230Z,14.40
2022-10-23T20:23:35.816Z,14.40
2022-10-23T20:26:45.715Z,14.40
2022-10-23T20:29:48.528Z,14.30
2022-10-23T20:32:50.365Z,14.30
2022-10-23T20:39:00.970Z,14.30
2022-10-23T20:42:03.877Z,14.30
2022-10-23T20:45:08.727Z,14.30
2022-10-23T20:48:10.313Z,14.30
2022-10-23T20:51:14.696Z,14.30
2022-10-23T20:54:17.755Z,14.30
2022-10-23T20:57:21.364Z,14.30
2022-10-23T21:00:23.323Z,14.30
2022-10-23T21:03:24.969Z,14.20
2022-10-23T21:06:45.851Z,14.20
2022-10-23T21:09:54.771Z,14.20
2022-10-23T21:12:56.390Z,14.20
2022-10-23T21:15:58.812Z,14.20
2022-10-23T21:19:01.656Z,14.20
2022-10-23T21:22:03.315Z,14.20
2022-10-23T21:25:05.321Z,14.20
2022-10-23T21:28:07.956Z,14.10
2022-10-23T21:31:12.863Z,14.10
2022-10-23T21:34:14.582Z,14.10
2022-10-23T21:37:16.206Z,14.10
2022-10-23T21:40:18.073Z,14.00
2022-10-23T21:43:19.729Z,14.00
2022-10-23T21:46:22.320Z,14.00
2022-10-23T21:49:24.419Z,14.00
2022-10-23T21:52:26.324Z,14.00
2022-10-23T21:55:29.700Z,14.00
2022-10-23T21:58:32.230Z,14.00
2022-10-23T22:01:35.297Z,14.00
2022-10-23T22:04:37.768Z,14.00
2022-10-23T22:07:39.503Z,14.10
2022-10-23T22:10:41.278Z,14.00
2022-10-23T22:13:43.635Z,14.00
2022-10-23T22:16:45.813Z,14.00
2022-10-23T22:19:47.454Z,14.00
2022-10-23T22:22:49.044Z,14.00
2022-10-23T22:25:51.627Z,14.00
2022-10-23T22:28:55.007Z,14.00
2022-10-23T22:31:57.592Z,13.90
2022-10-23T22:34:59.191Z,14.00
2022-10-23T22:38:00.797Z,14.00
2022-10-23T22:41:04.040Z,14.00
2022-10-23T22:44:06.303Z,14.00
2022-10-23T22:47:07.964Z,14.00
2022-10-23T22:50:09.744Z,14.00
2022-10-23T22:53:11.343Z,13.90
2022-10-23T22:56:19.168Z,13.90
2022-10-23T22:59:20.793Z,13.90
2022-10-23T23:02:22.425Z,13.90
2022-10-23T23:05:24.032Z,13.90
2022-10-23T23:08:38.995Z,13.90
2022-10-23T23:11:51.394Z,13.90
2022-10-23T23:14:53.987Z,13.90
2022-10-23T23:17:55.885Z,13.90
2022-10-23T23:21:02.514Z,13.90
2022-10-23T23:24:04.349Z,13.90
2022-10-23T23:27:06.063Z,14.00
2022-10-23T23:30:09.253Z,14.00
2022-10-23T23:33:11.696Z,14.00
2022-10-23T23:36:16.047Z,14.00
2022-10-23T23:39:17.701Z,14.00
2022-10-23T23:42:19.354Z,14.00
2022-10-23T23:45:20.952Z,13.90
2022-10-23T23:48:22.753Z,14.00
2022-10-23T23:51:25.552Z,13.90
2022-10-23T23:54:27.251Z,13.90
2022-10-23T23:57:28.900Z,13.90
